Skip Navigation Links
NOAA logo - Click to go to the NOAA homepage
NOAA's National Weather Service
Alaska Aviation Weather Unit
  NWS logo - Click to go to the NWS homepage
Left Navbar Graphic     09 AKDT = 17 GMT

   
NOAA is celebrating 200 years of science, service, and stewardship. Visit the NOAA 200th celebration Web site to learn more.
USA.gov is the U.S. Government's official Web portal to all Federal, state and local government Web resources and services.
Facebook
NWS on Facebook

Important Change Regarding the AAWU Web Presence

 

Over the last several months, the AAWU has been working to navigate its webpages to a nationally supported server. Security, as well as other needs, have necessitated the change.  In the process, we have made an effort to enhance the functionality of our website, as well as some of our products. As of June 20, 2017, aawu.arh.noaa.gov will be discontinued. The new AAWU web address is weather.gov/aawu. It is now live and will run in-parallel with the old site until it is discontinued. Please send any feedback or questions regarding the new webpages to nws.ar.aawu.webauthors@noaa.gov.  Thank you for your patience during this time of transition.
AAWU Home :: Display TAF Add Bookmark
METAR PACM 271156Z AUTO 15009KT 10SM OVC070 01/M01 A2986 RMK AO2 SLP107
     70009 T00111006 10033 20011 53004 FZRANO=

METAR PACM 271256Z AUTO 15009KT 10SM CLR 01/M01 A2986 RMK AO2 UPB16E28
     SLP107 P0000 T00111011 FZRANO=

METAR PACM 271356Z AUTO 18007KT 10SM SCT033 02/M01 A2987 RMK AO2 SLP109
     T00171006 FZRANO=

METAR PACM 271456Z AUTO 18009KT 10SM BKN060 02/M01 A2987 RMK AO2 SLP110
     60000 T00171006 53003 FZRANO=

METAR PACM 271556Z AUTO 22007KT 10SM FEW060 03/M01 A2987 RMK AO2 SLP111
     T00331006=

SPECI PACM 271645Z AUTO 26004KT 10SM BKN018 OVC060 03/01 A2988 RMK
     AO2=

METAR PACM 271656Z AUTO 20005KT 10SM BKN016 OVC022 03/01 A2989 RMK AO2
     SLP116 T00330006=


NOAA's National Weather Service
Alaska Aviation Weather Unit
6930 Sand Lake Road
Anchorage, AK 99502-1845
Disclaimer
Credits
Glossary
Privacy Policy
About Us
Career Opportunities
Contact AAWU Internet Services Site last modified: April, 17th 2012